sensor_id;sensor_type;location;lat;lon;timestamp;P1;durP1;ratioP1;P2;durP2;ratioP2
32523;SDS011;18965;52.242;20.886;2022-12-07T00:03:31;215.27;;;77.82;;
32523;SDS011;18965;52.242;20.886;2022-12-07T00:05:57;228.60;;;81.88;;
32523;SDS011;18965;52.242;20.886;2022-12-07T00:08:24;182.05;;;75.65;;
32523;SDS011;18965;52.242;20.886;2022-12-07T00:10:49;206.43;;;80.10;;
32523;SDS011;18965;52.242;20.886;2022-12-07T00:13:15;187.40;;;75.50;;
32523;SDS011;18965;52.242;20.886;2022-12-07T00:15:41;187.15;;;75.88;;
32523;SDS011;18965;52.242;20.886;2022-12-07T00:18:07;57.42;;;20.17;;
32523;SDS011;18965;52.242;20.886;2022-12-07T00:20:33;93.55;;;39.38;;
32523;SDS011;18965;52.242;20.886;2022-12-07T00:22:59;96.93;;;26.63;;
32523;SDS011;18965;52.242;20.886;2022-12-07T00:25:25;72.45;;;39.95;;
32523;SDS011;18965;52.242;20.886;2022-12-07T00:27:54;61.70;;;25.85;;
32523;SDS011;18965;52.242;20.886;2022-12-07T00:30:21;95.63;;;40.30;;
32523;SDS011;18965;52.242;20.886;2022-12-07T00:32:48;82.05;;;51.35;;
32523;SDS011;18965;52.242;20.886;2022-12-07T00:35:14;113.25;;;44.85;;
32523;SDS011;18965;52.242;20.886;2022-12-07T00:37:39;84.03;;;58.60;;
32523;SDS011;18965;52.242;20.886;2022-12-07T00:40:05;87.82;;;48.97;;
32523;SDS011;18965;52.242;20.886;2022-12-07T00:42:32;90.35;;;43.25;;
32523;SDS011;18965;52.242;20.886;2022-12-07T00:44:57;56.03;;;28.10;;
32523;SDS011;18965;52.242;20.886;2022-12-07T00:47:23;74.38;;;35.65;;
32523;SDS011;18965;52.242;20.886;2022-12-07T00:49:49;92.30;;;52.17;;
32523;SDS011;18965;52.242;20.886;2022-12-07T00:52:15;66.65;;;26.40;;
32523;SDS011;18965;52.242;20.886;2022-12-07T00:54:40;105.03;;;62.08;;
32523;SDS011;18965;52.242;20.886;2022-12-07T00:57:06;84.47;;;47.75;;
32523;SDS011;18965;52.242;20.886;2022-12-07T00:59:32;114.13;;;75.05;;
32523;SDS011;18965;52.242;20.886;2022-12-07T01:01:58;163.32;;;95.03;;
32523;SDS011;18965;52.242;20.886;2022-12-07T01:04:24;129.82;;;85.10;;
32523;SDS011;18965;52.242;20.886;2022-12-07T01:06:49;79.43;;;54.00;;
32523;SDS011;18965;52.242;20.886;2022-12-07T01:09:15;95.53;;;51.25;;
32523;SDS011;18965;52.242;20.886;2022-12-07T01:11:41;137.32;;;78.28;;
32523;SDS011;18965;52.242;20.886;2022-12-07T01:14:08;167.23;;;74.20;;
32523;SDS011;18965;52.242;20.886;2022-12-07T01:16:34;82.22;;;65.70;;
32523;SDS011;18965;52.242;20.886;2022-12-07T01:19:00;103.20;;;61.17;;
32523;SDS011;18965;52.242;20.886;2022-12-07T01:21:27;66.45;;;37.42;;
32523;SDS011;18965;52.242;20.886;2022-12-07T01:23:56;88.55;;;49.30;;
32523;SDS011;18965;52.242;20.886;2022-12-07T01:26:23;97.68;;;49.40;;
32523;SDS011;18965;52.242;20.886;2022-12-07T01:28:50;86.93;;;47.28;;
32523;SDS011;18965;52.242;20.886;2022-12-07T01:31:20;140.32;;;77.28;;
32523;SDS011;18965;52.242;20.886;2022-12-07T01:33:49;74.93;;;27.48;;
32523;SDS011;18965;52.242;20.886;2022-12-07T01:36:18;83.23;;;54.07;;
32523;SDS011;18965;52.242;20.886;2022-12-07T01:38:46;141.80;;;100.40;;
32523;SDS011;18965;52.242;20.886;2022-12-07T01:41:13;114.60;;;75.57;;
32523;SDS011;18965;52.242;20.886;2022-12-07T01:46:43;92.75;;;48.08;;
32523;SDS011;18965;52.242;20.886;2022-12-07T01:52:22;75.47;;;38.17;;
32523;SDS011;18965;52.242;20.886;2022-12-07T01:54:56;237.73;;;83.93;;
32523;SDS011;18965;52.242;20.886;2022-12-07T01:57:28;130.57;;;61.50;;
32523;SDS011;18965;52.242;20.886;2022-12-07T01:59:55;275.20;;;88.80;;
32523;SDS011;18965;52.242;20.886;2022-12-07T02:02:26;248.02;;;83.50;;
32523;SDS011;18965;52.242;20.886;2022-12-07T02:04:57;214.38;;;76.75;;
32523;SDS011;18965;52.242;20.886;2022-12-07T02:07:25;219.18;;;78.75;;
32523;SDS011;18965;52.242;20.886;2022-12-07T02:09:52;209.48;;;76.13;;
32523;SDS011;18965;52.242;20.886;2022-12-07T02:12:18;180.70;;;70.43;;
32523;SDS011;18965;52.242;20.886;2022-12-07T02:14:45;178.90;;;69.80;;
32523;SDS011;18965;52.242;20.886;2022-12-07T02:17:13;201.48;;;72.07;;
32523;SDS011;18965;52.242;20.886;2022-12-07T02:22:37;168.65;;;67.90;;
32523;SDS011;18965;52.242;20.886;2022-12-07T02:30:31;158.40;;;65.60;;
32523;SDS011;18965;52.242;20.886;2022-12-07T02:33:04;150.75;;;64.10;;
32523;SDS011;18965;52.242;20.886;2022-12-07T02:36:16;157.23;;;64.18;;
32523;SDS011;18965;52.242;20.886;2022-12-07T02:41:24;152.20;;;62.92;;
32523;SDS011;18965;52.242;20.886;2022-12-07T02:44:00;157.25;;;63.90;;
32523;SDS011;18965;52.242;20.886;2022-12-07T02:46:42;174.35;;;66.20;;
32523;SDS011;18965;52.242;20.886;2022-12-07T02:49:12;199.35;;;69.57;;
32523;SDS011;18965;52.242;20.886;2022-12-07T02:51:39;153.82;;;62.72;;
32523;SDS011;18965;52.242;20.886;2022-12-07T02:54:16;150.65;;;62.47;;
32523;SDS011;18965;52.242;20.886;2022-12-07T03:07:00;198.55;;;71.90;;
32523;SDS011;18965;52.242;20.886;2022-12-07T03:09:45;191.13;;;69.70;;
32523;SDS011;18965;52.242;20.886;2022-12-07T03:15:33;181.32;;;67.30;;
32523;SDS011;18965;52.242;20.886;2022-12-07T03:18:10;176.05;;;66.32;;
32523;SDS011;18965;52.242;20.886;2022-12-07T03:20:38;184.57;;;68.28;;
32523;SDS011;18965;52.242;20.886;2022-12-07T03:23:07;188.52;;;69.40;;
32523;SDS011;18965;52.242;20.886;2022-12-07T03:25:35;167.02;;;65.93;;
32523;SDS011;18965;52.242;20.886;2022-12-07T03:28:08;179.85;;;67.35;;
32523;SDS011;18965;52.242;20.886;2022-12-07T03:30:39;179.07;;;66.40;;
32523;SDS011;18965;52.242;20.886;2022-12-07T03:33:12;175.05;;;65.93;;
32523;SDS011;18965;52.242;20.886;2022-12-07T03:35:45;178.68;;;65.63;;
32523;SDS011;18965;52.242;20.886;2022-12-07T03:38:18;181.15;;;66.00;;
32523;SDS011;18965;52.242;20.886;2022-12-07T03:43:27;203.48;;;69.45;;
32523;SDS011;18965;52.242;20.886;2022-12-07T03:49:21;200.98;;;68.57;;
32523;SDS011;18965;52.242;20.886;2022-12-07T03:57:19;192.82;;;68.60;;
32523;SDS011;18965;52.242;20.886;2022-12-07T03:59:47;202.48;;;70.95;;
32523;SDS011;18965;52.242;20.886;2022-12-07T04:02:14;195.35;;;69.72;;
32523;SDS011;18965;52.242;20.886;2022-12-07T04:04:40;196.38;;;70.40;;
32523;SDS011;18965;52.242;20.886;2022-12-07T04:07:07;217.93;;;71.70;;
32523;SDS011;18965;52.242;20.886;2022-12-07T04:09:33;214.38;;;71.90;;
32523;SDS011;18965;52.242;20.886;2022-12-07T04:11:58;203.02;;;69.07;;
32523;SDS011;18965;52.242;20.886;2022-12-07T04:14:24;223.32;;;73.63;;
32523;SDS011;18965;52.242;20.886;2022-12-07T04:16:51;198.35;;;69.60;;
32523;SDS011;18965;52.242;20.886;2022-12-07T04:19:19;203.68;;;70.90;;
32523;SDS011;18965;52.242;20.886;2022-12-07T04:21:46;225.52;;;72.30;;
32523;SDS011;18965;52.242;20.886;2022-12-07T04:24:13;259.10;;;76.43;;
32523;SDS011;18965;52.242;20.886;2022-12-07T04:26:40;237.23;;;74.30;;
32523;SDS011;18965;52.242;20.886;2022-12-07T04:29:06;212.93;;;70.68;;
32523;SDS011;18965;52.242;20.886;2022-12-07T04:31:33;202.63;;;71.45;;
32523;SDS011;18965;52.242;20.886;2022-12-07T04:33:59;200.52;;;69.70;;
32523;SDS011;18965;52.242;20.886;2022-12-07T04:36:24;194.55;;;68.28;;
32523;SDS011;18965;52.242;20.886;2022-12-07T04:38:52;206.63;;;70.15;;
32523;SDS011;18965;52.242;20.886;2022-12-07T04:41:18;215.30;;;70.65;;
32523;SDS011;18965;52.242;20.886;2022-12-07T04:43:44;229.68;;;88.03;;
32523;SDS011;18965;52.242;20.886;2022-12-07T04:46:10;198.55;;;67.75;;
32523;SDS011;18965;52.242;20.886;2022-12-07T04:48:35;187.57;;;67.65;;
32523;SDS011;18965;52.242;20.886;2022-12-07T04:51:02;206.55;;;70.20;;
32523;SDS011;18965;52.242;20.886;2022-12-07T04:53:28;211.60;;;71.72;;
32523;SDS011;18965;52.242;20.886;2022-12-07T04:55:54;211.23;;;70.65;;
32523;SDS011;18965;52.242;20.886;2022-12-07T04:58:20;208.25;;;70.68;;
32523;SDS011;18965;52.242;20.886;2022-12-07T05:00:46;182.93;;;66.30;;
32523;SDS011;18965;52.242;20.886;2022-12-07T05:03:11;184.40;;;67.25;;
32523;SDS011;18965;52.242;20.886;2022-12-07T05:05:39;216.15;;;71.93;;
32523;SDS011;18965;52.242;20.886;2022-12-07T05:08:06;183.10;;;66.80;;
32523;SDS011;18965;52.242;20.886;2022-12-07T05:10:32;176.82;;;65.68;;
32523;SDS011;18965;52.242;20.886;2022-12-07T05:12:58;201.70;;;69.00;;
32523;SDS011;18965;52.242;20.886;2022-12-07T05:15:24;176.15;;;65.03;;
32523;SDS011;18965;52.242;20.886;2022-12-07T05:17:50;198.13;;;68.93;;
32523;SDS011;18965;52.242;20.886;2022-12-07T05:20:17;184.18;;;67.07;;
32523;SDS011;18965;52.242;20.886;2022-12-07T05:22:43;173.98;;;65.15;;
32523;SDS011;18965;52.242;20.886;2022-12-07T05:25:08;176.00;;;66.55;;
32523;SDS011;18965;52.242;20.886;2022-12-07T05:27:34;217.65;;;70.63;;
32523;SDS011;18965;52.242;20.886;2022-12-07T05:30:00;213.68;;;69.80;;
32523;SDS011;18965;52.242;20.886;2022-12-07T05:32:26;158.25;;;62.45;;
32523;SDS011;18965;52.242;20.886;2022-12-07T05:34:51;160.52;;;64.07;;
32523;SDS011;18965;52.242;20.886;2022-12-07T05:37:19;181.48;;;65.53;;
32523;SDS011;18965;52.242;20.886;2022-12-07T05:39:45;23.00;;;15.75;;
32523;SDS011;18965;52.242;20.886;2022-12-07T05:42:11;34.80;;;15.48;;
32523;SDS011;18965;52.242;20.886;2022-12-07T05:44:37;51.33;;;34.40;;
32523;SDS011;18965;52.242;20.886;2022-12-07T05:47:03;44.53;;;40.35;;
32523;SDS011;18965;52.242;20.886;2022-12-07T05:49:29;283.27;;;80.75;;
32523;SDS011;18965;52.242;20.886;2022-12-07T05:51:55;247.25;;;77.07;;
32523;SDS011;18965;52.242;20.886;2022-12-07T05:54:21;246.57;;;76.60;;
32523;SDS011;18965;52.242;20.886;2022-12-07T05:56:47;241.15;;;75.47;;
32523;SDS011;18965;52.242;20.886;2022-12-07T05:59:12;234.70;;;73.78;;
32523;SDS011;18965;52.242;20.886;2022-12-07T06:01:54;227.07;;;73.43;;
32523;SDS011;18965;52.242;20.886;2022-12-07T06:04:25;226.73;;;72.68;;
32523;SDS011;18965;52.242;20.886;2022-12-07T06:06:53;221.95;;;71.95;;
32523;SDS011;18965;52.242;20.886;2022-12-07T06:09:19;207.25;;;69.70;;
32523;SDS011;18965;52.242;20.886;2022-12-07T06:11:46;212.88;;;70.22;;
32523;SDS011;18965;52.242;20.886;2022-12-07T06:14:30;226.32;;;73.05;;
32523;SDS011;18965;52.242;20.886;2022-12-07T06:16:57;219.57;;;72.05;;
32523;SDS011;18965;52.242;20.886;2022-12-07T06:19:24;197.90;;;68.55;;
32523;SDS011;18965;52.242;20.886;2022-12-07T06:21:49;211.52;;;70.43;;
32523;SDS011;18965;52.242;20.886;2022-12-07T06:24:16;212.27;;;69.38;;
32523;SDS011;18965;52.242;20.886;2022-12-07T06:26:42;193.15;;;68.00;;
32523;SDS011;18965;52.242;20.886;2022-12-07T06:29:09;190.43;;;67.95;;
32523;SDS011;18965;52.242;20.886;2022-12-07T06:31:36;202.55;;;68.78;;
32523;SDS011;18965;52.242;20.886;2022-12-07T06:34:03;197.40;;;69.00;;
32523;SDS011;18965;52.242;20.886;2022-12-07T06:36:30;217.30;;;72.60;;
32523;SDS011;18965;52.242;20.886;2022-12-07T06:38:57;193.95;;;68.07;;
32523;SDS011;18965;52.242;20.886;2022-12-07T06:41:23;190.88;;;67.53;;
32523;SDS011;18965;52.242;20.886;2022-12-07T06:43:49;186.80;;;67.47;;
32523;SDS011;18965;52.242;20.886;2022-12-07T06:46:15;185.85;;;67.95;;
32523;SDS011;18965;52.242;20.886;2022-12-07T06:48:42;211.02;;;68.75;;
32523;SDS011;18965;52.242;20.886;2022-12-07T06:51:08;182.30;;;65.38;;
32523;SDS011;18965;52.242;20.886;2022-12-07T06:53:35;183.35;;;66.35;;
32523;SDS011;18965;52.242;20.886;2022-12-07T06:56:02;214.27;;;68.57;;
32523;SDS011;18965;52.242;20.886;2022-12-07T06:58:28;188.80;;;65.97;;
32523;SDS011;18965;52.242;20.886;2022-12-07T07:00:54;174.80;;;64.93;;
32523;SDS011;18965;52.242;20.886;2022-12-07T07:03:20;212.48;;;68.90;;
32523;SDS011;18965;52.242;20.886;2022-12-07T07:05:46;183.23;;;65.38;;
32523;SDS011;18965;52.242;20.886;2022-12-07T07:08:12;218.23;;;69.30;;
32523;SDS011;18965;52.242;20.886;2022-12-07T07:10:38;171.38;;;63.53;;
32523;SDS011;18965;52.242;20.886;2022-12-07T07:13:04;198.20;;;69.07;;
32523;SDS011;18965;52.242;20.886;2022-12-07T07:15:31;199.35;;;69.30;;
32523;SDS011;18965;52.242;20.886;2022-12-07T07:17:57;218.63;;;71.78;;
32523;SDS011;18965;52.242;20.886;2022-12-07T07:20:23;229.90;;;71.00;;
32523;SDS011;18965;52.242;20.886;2022-12-07T07:22:49;235.35;;;72.45;;
32523;SDS011;18965;52.242;20.886;2022-12-07T07:25:15;244.55;;;75.15;;
32523;SDS011;18965;52.242;20.886;2022-12-07T07:27:41;199.05;;;69.13;;
32523;SDS011;18965;52.242;20.886;2022-12-07T07:30:07;201.38;;;68.30;;
32523;SDS011;18965;52.242;20.886;2022-12-07T07:32:34;246.60;;;75.10;;
32523;SDS011;18965;52.242;20.886;2022-12-07T07:34:59;233.52;;;72.53;;
32523;SDS011;18965;52.242;20.886;2022-12-07T07:37:26;236.70;;;72.00;;
32523;SDS011;18965;52.242;20.886;2022-12-07T07:39:51;202.25;;;68.97;;
32523;SDS011;18965;52.242;20.886;2022-12-07T07:42:17;200.18;;;69.38;;
32523;SDS011;18965;52.242;20.886;2022-12-07T07:44:43;218.55;;;70.18;;
32523;SDS011;18965;52.242;20.886;2022-12-07T07:47:09;198.57;;;67.85;;
32523;SDS011;18965;52.242;20.886;2022-12-07T07:49:35;227.65;;;73.18;;
32523;SDS011;18965;52.242;20.886;2022-12-07T07:52:00;203.10;;;69.38;;
32523;SDS011;18965;52.242;20.886;2022-12-07T07:54:26;198.20;;;69.10;;
32523;SDS011;18965;52.242;20.886;2022-12-07T07:56:52;217.23;;;71.05;;
32523;SDS011;18965;52.242;20.886;2022-12-07T07:59:18;216.93;;;70.85;;
32523;SDS011;18965;52.242;20.886;2022-12-07T08:01:44;251.35;;;75.25;;
32523;SDS011;18965;52.242;20.886;2022-12-07T08:04:10;193.45;;;67.65;;
32523;SDS011;18965;52.242;20.886;2022-12-07T08:06:35;216.70;;;71.18;;
32523;SDS011;18965;52.242;20.886;2022-12-07T08:09:01;226.35;;;71.45;;
32523;SDS011;18965;52.242;20.886;2022-12-07T08:11:27;214.82;;;70.28;;
32523;SDS011;18965;52.242;20.886;2022-12-07T08:13:53;205.00;;;69.63;;
32523;SDS011;18965;52.242;20.886;2022-12-07T08:16:19;189.10;;;66.57;;
32523;SDS011;18965;52.242;20.886;2022-12-07T08:18:45;229.80;;;72.20;;
32523;SDS011;18965;52.242;20.886;2022-12-07T08:21:12;216.48;;;71.43;;
32523;SDS011;18965;52.242;20.886;2022-12-07T08:23:39;202.73;;;69.10;;
32523;SDS011;18965;52.242;20.886;2022-12-07T08:26:07;215.15;;;72.25;;
32523;SDS011;18965;52.242;20.886;2022-12-07T08:28:35;208.70;;;70.50;;
32523;SDS011;18965;52.242;20.886;2022-12-07T08:31:02;229.93;;;73.60;;
32523;SDS011;18965;52.242;20.886;2022-12-07T08:33:32;196.43;;;69.97;;
32523;SDS011;18965;52.242;20.886;2022-12-07T08:36:05;237.27;;;75.32;;
32523;SDS011;18965;52.242;20.886;2022-12-07T08:38:34;197.38;;;69.65;;
32523;SDS011;18965;52.242;20.886;2022-12-07T08:41:01;208.32;;;71.15;;
32523;SDS011;18965;52.242;20.886;2022-12-07T08:43:27;202.98;;;70.15;;
32523;SDS011;18965;52.242;20.886;2022-12-07T08:48:37;191.00;;;68.15;;
32523;SDS011;18965;52.242;20.886;2022-12-07T08:51:09;187.60;;;68.03;;
32523;SDS011;18965;52.242;20.886;2022-12-07T08:53:35;215.75;;;71.00;;
32523;SDS011;18965;52.242;20.886;2022-12-07T08:56:03;200.73;;;69.13;;
32523;SDS011;18965;52.242;20.886;2022-12-07T08:58:31;181.60;;;67.78;;
32523;SDS011;18965;52.242;20.886;2022-12-07T09:00:58;176.80;;;66.35;;
32523;SDS011;18965;52.242;20.886;2022-12-07T09:03:24;172.63;;;65.50;;
32523;SDS011;18965;52.242;20.886;2022-12-07T09:05:49;176.18;;;67.03;;
32523;SDS011;18965;52.242;20.886;2022-12-07T09:08:15;163.50;;;63.20;;
32523;SDS011;18965;52.242;20.886;2022-12-07T09:10:41;151.02;;;61.95;;
32523;SDS011;18965;52.242;20.886;2022-12-07T09:13:07;167.05;;;63.65;;
32523;SDS011;18965;52.242;20.886;2022-12-07T09:15:33;142.73;;;60.10;;
32523;SDS011;18965;52.242;20.886;2022-12-07T09:17:59;146.73;;;60.47;;
32523;SDS011;18965;52.242;20.886;2022-12-07T09:20:24;173.77;;;63.20;;
32523;SDS011;18965;52.242;20.886;2022-12-07T09:22:51;124.22;;;57.08;;
32523;SDS011;18965;52.242;20.886;2022-12-07T09:25:17;143.10;;;59.45;;
32523;SDS011;18965;52.242;20.886;2022-12-07T09:27:43;129.77;;;59.13;;
32523;SDS011;18965;52.242;20.886;2022-12-07T09:30:09;143.27;;;59.83;;
32523;SDS011;18965;52.242;20.886;2022-12-07T09:32:34;143.38;;;59.63;;
32523;SDS011;18965;52.242;20.886;2022-12-07T09:35:00;126.32;;;57.42;;
32523;SDS011;18965;52.242;20.886;2022-12-07T09:37:26;127.82;;;56.97;;
32523;SDS011;18965;52.242;20.886;2022-12-07T09:39:52;136.95;;;59.15;;
32523;SDS011;18965;52.242;20.886;2022-12-07T09:42:26;122.18;;;56.25;;
32523;SDS011;18965;52.242;20.886;2022-12-07T09:44:55;127.72;;;57.78;;
32523;SDS011;18965;52.242;20.886;2022-12-07T09:47:21;129.95;;;58.38;;
32523;SDS011;18965;52.242;20.886;2022-12-07T09:49:47;123.60;;;58.05;;
32523;SDS011;18965;52.242;20.886;2022-12-07T09:54:46;127.57;;;56.80;;
32523;SDS011;18965;52.242;20.886;2022-12-07T09:57:14;308.98;;;85.00;;
32523;SDS011;18965;52.242;20.886;2022-12-07T09:59:40;118.90;;;55.42;;
32523;SDS011;18965;52.242;20.886;2022-12-07T10:05:10;131.82;;;58.42;;
32523;SDS011;18965;52.242;20.886;2022-12-07T10:07:39;113.82;;;54.25;;
32523;SDS011;18965;52.242;20.886;2022-12-07T10:10:15;126.38;;;57.10;;
32523;SDS011;18965;52.242;20.886;2022-12-07T10:12:58;122.70;;;56.33;;
32523;SDS011;18965;52.242;20.886;2022-12-07T10:15:45;119.13;;;55.05;;
32523;SDS011;18965;52.242;20.886;2022-12-07T10:21:16;232.43;;;80.18;;
32523;SDS011;18965;52.242;20.886;2022-12-07T10:24:13;226.25;;;75.95;;
32523;SDS011;18965;52.242;20.886;2022-12-07T10:31:40;234.60;;;78.07;;
32523;SDS011;18965;52.242;20.886;2022-12-07T10:34:15;232.13;;;76.93;;
32523;SDS011;18965;52.242;20.886;2022-12-07T10:36:55;182.35;;;69.35;;
32523;SDS011;18965;52.242;20.886;2022-12-07T10:39:42;202.70;;;72.68;;
32523;SDS011;18965;52.242;20.886;2022-12-07T10:42:20;199.90;;;72.80;;
32523;SDS011;18965;52.242;20.886;2022-12-07T10:47:50;190.38;;;70.78;;
32523;SDS011;18965;52.242;20.886;2022-12-07T10:50:33;207.82;;;72.43;;
32523;SDS011;18965;52.242;20.886;2022-12-07T11:01:04;184.05;;;68.72;;
32523;SDS011;18965;52.242;20.886;2022-12-07T11:03:42;184.38;;;69.88;;
32523;SDS011;18965;52.242;20.886;2022-12-07T11:09:00;139.98;;;60.88;;
32523;SDS011;18965;52.242;20.886;2022-12-07T11:12:02;169.95;;;65.63;;
32523;SDS011;18965;52.242;20.886;2022-12-07T11:26:23;115.13;;;55.92;;
32523;SDS011;18965;52.242;20.886;2022-12-07T11:29:18;158.15;;;64.20;;
32523;SDS011;18965;52.242;20.886;2022-12-07T11:34:39;136.23;;;60.97;;
32523;SDS011;18965;52.242;20.886;2022-12-07T11:37:09;146.85;;;62.03;;
32523;SDS011;18965;52.242;20.886;2022-12-07T11:39:44;145.48;;;63.58;;
32523;SDS011;18965;52.242;20.886;2022-12-07T11:42:40;139.23;;;60.72;;
32523;SDS011;18965;52.242;20.886;2022-12-07T11:45:13;129.38;;;59.00;;
32523;SDS011;18965;52.242;20.886;2022-12-07T11:58:35;100.68;;;54.08;;
32523;SDS011;18965;52.242;20.886;2022-12-07T12:06:36;97.40;;;52.10;;
32523;SDS011;18965;52.242;20.886;2022-12-07T12:09:05;106.28;;;56.25;;
32523;SDS011;18965;52.242;20.886;2022-12-07T12:25:29;179.25;;;67.72;;
32523;SDS011;18965;52.242;20.886;2022-12-07T12:30:36;145.40;;;60.78;;
32523;SDS011;18965;52.242;20.886;2022-12-07T12:33:13;154.60;;;64.57;;
32523;SDS011;18965;52.242;20.886;2022-12-07T12:41:51;153.57;;;66.15;;
32523;SDS011;18965;52.242;20.886;2022-12-07T12:47:37;157.27;;;66.47;;
32523;SDS011;18965;52.242;20.886;2022-12-07T13:00:46;171.85;;;66.43;;
32523;SDS011;18965;52.242;20.886;2022-12-07T13:03:29;172.80;;;65.63;;
32523;SDS011;18965;52.242;20.886;2022-12-07T13:09:01;161.25;;;63.97;;
32523;SDS011;18965;52.242;20.886;2022-12-07T13:11:38;194.90;;;68.32;;
32523;SDS011;18965;52.242;20.886;2022-12-07T13:17:12;175.65;;;67.05;;
32523;SDS011;18965;52.242;20.886;2022-12-07T13:20:06;181.75;;;67.22;;
32523;SDS011;18965;52.242;20.886;2022-12-07T13:25:17;174.45;;;66.82;;
32523;SDS011;18965;52.242;20.886;2022-12-07T13:28:07;183.68;;;68.30;;
32523;SDS011;18965;52.242;20.886;2022-12-07T13:33:36;176.18;;;67.18;;
32523;SDS011;18965;52.242;20.886;2022-12-07T13:36:02;175.50;;;66.53;;
32523;SDS011;18965;52.242;20.886;2022-12-07T13:38:32;172.57;;;65.68;;
32523;SDS011;18965;52.242;20.886;2022-12-07T13:41:11;164.05;;;64.93;;
32523;SDS011;18965;52.242;20.886;2022-12-07T13:43:52;159.68;;;63.03;;
32523;SDS011;18965;52.242;20.886;2022-12-07T13:46:34;26.98;;;9.82;;
32523;SDS011;18965;52.242;20.886;2022-12-07T13:49:24;38.17;;;23.42;;
32523;SDS011;18965;52.242;20.886;2022-12-07T13:51:52;37.97;;;17.27;;
32523;SDS011;18965;52.242;20.886;2022-12-07T13:54:19;47.03;;;20.33;;
32523;SDS011;18965;52.242;20.886;2022-12-07T13:56:52;36.65;;;19.60;;
32523;SDS011;18965;52.242;20.886;2022-12-07T13:59:20;33.45;;;18.55;;
32523;SDS011;18965;52.242;20.886;2022-12-07T14:01:51;92.50;;;53.53;;
32523;SDS011;18965;52.242;20.886;2022-12-07T14:04:19;75.35;;;67.50;;
32523;SDS011;18965;52.242;20.886;2022-12-07T14:07:18;187.68;;;69.95;;
32523;SDS011;18965;52.242;20.886;2022-12-07T14:09:53;230.70;;;76.47;;
32523;SDS011;18965;52.242;20.886;2022-12-07T14:12:26;218.57;;;75.05;;
32523;SDS011;18965;52.242;20.886;2022-12-07T14:14:53;209.57;;;74.82;;
32523;SDS011;18965;52.242;20.886;2022-12-07T14:17:21;202.23;;;72.10;;
32523;SDS011;18965;52.242;20.886;2022-12-07T14:19:58;201.02;;;72.13;;
32523;SDS011;18965;52.242;20.886;2022-12-07T14:22:33;190.73;;;69.72;;
32523;SDS011;18965;52.242;20.886;2022-12-07T14:27:39;203.38;;;71.50;;
32523;SDS011;18965;52.242;20.886;2022-12-07T14:30:15;194.65;;;71.13;;
32523;SDS011;18965;52.242;20.886;2022-12-07T14:32:42;194.45;;;69.65;;
32523;SDS011;18965;52.242;20.886;2022-12-07T14:35:14;191.70;;;69.32;;
32523;SDS011;18965;52.242;20.886;2022-12-07T14:37:41;170.60;;;66.72;;
32523;SDS011;18965;52.242;20.886;2022-12-07T14:40:12;167.20;;;65.93;;
32523;SDS011;18965;52.242;20.886;2022-12-07T14:42:39;167.25;;;65.80;;
32523;SDS011;18965;52.242;20.886;2022-12-07T14:45:10;165.00;;;65.78;;
32523;SDS011;18965;52.242;20.886;2022-12-07T14:47:43;168.20;;;64.72;;
32523;SDS011;18965;52.242;20.886;2022-12-07T14:50:11;163.98;;;64.82;;
32523;SDS011;18965;52.242;20.886;2022-12-07T14:52:38;278.00;;;82.38;;
32523;SDS011;18965;52.242;20.886;2022-12-07T14:55:11;90.20;;;70.18;;
32523;SDS011;18965;52.242;20.886;2022-12-07T14:57:39;145.35;;;71.43;;
32523;SDS011;18965;52.242;20.886;2022-12-07T15:00:05;180.35;;;94.68;;
32523;SDS011;18965;52.242;20.886;2022-12-07T15:02:31;152.00;;;81.95;;
32523;SDS011;18965;52.242;20.886;2022-12-07T15:04:57;111.22;;;66.28;;
32523;SDS011;18965;52.242;20.886;2022-12-07T15:07:23;163.43;;;73.05;;
32523;SDS011;18965;52.242;20.886;2022-12-07T15:09:48;139.45;;;71.85;;
32523;SDS011;18965;52.242;20.886;2022-12-07T15:12:14;99.32;;;53.88;;
32523;SDS011;18965;52.242;20.886;2022-12-07T15:14:40;90.40;;;60.55;;
32523;SDS011;18965;52.242;20.886;2022-12-07T15:17:06;103.35;;;67.90;;
32523;SDS011;18965;52.242;20.886;2022-12-07T15:19:34;238.98;;;78.00;;
32523;SDS011;18965;52.242;20.886;2022-12-07T15:22:00;280.08;;;84.70;;
32523;SDS011;18965;52.242;20.886;2022-12-07T15:24:26;264.23;;;82.07;;
32523;SDS011;18965;52.242;20.886;2022-12-07T15:26:52;176.52;;;132.02;;
32523;SDS011;18965;52.242;20.886;2022-12-07T15:29:18;176.93;;;83.10;;
32523;SDS011;18965;52.242;20.886;2022-12-07T15:31:43;131.13;;;87.53;;
32523;SDS011;18965;52.242;20.886;2022-12-07T15:34:10;186.95;;;92.47;;
32523;SDS011;18965;52.242;20.886;2022-12-07T15:36:36;287.77;;;87.20;;
32523;SDS011;18965;52.242;20.886;2022-12-07T15:39:02;292.83;;;84.32;;
32523;SDS011;18965;52.242;20.886;2022-12-07T15:41:28;257.60;;;81.18;;
32523;SDS011;18965;52.242;20.886;2022-12-07T15:43:54;209.18;;;98.90;;
32523;SDS011;18965;52.242;20.886;2022-12-07T15:46:39;148.65;;;74.25;;
32523;SDS011;18965;52.242;20.886;2022-12-07T15:49:07;161.10;;;83.18;;
32523;SDS011;18965;52.242;20.886;2022-12-07T15:54:01;193.18;;;73.28;;
32523;SDS011;18965;52.242;20.886;2022-12-07T15:56:27;201.55;;;80.32;;
32523;SDS011;18965;52.242;20.886;2022-12-07T15:58:53;213.00;;;115.53;;
32523;SDS011;18965;52.242;20.886;2022-12-07T16:01:20;181.90;;;86.93;;
32523;SDS011;18965;52.242;20.886;2022-12-07T16:03:46;200.13;;;85.40;;
32523;SDS011;18965;52.242;20.886;2022-12-07T16:06:15;223.77;;;86.20;;
32523;SDS011;18965;52.242;20.886;2022-12-07T16:08:42;194.85;;;81.60;;
32523;SDS011;18965;52.242;20.886;2022-12-07T16:11:09;184.23;;;104.18;;
32523;SDS011;18965;52.242;20.886;2022-12-07T16:13:35;207.57;;;75.45;;
32523;SDS011;18965;52.242;20.886;2022-12-07T16:16:04;196.70;;;83.65;;
32523;SDS011;18965;52.242;20.886;2022-12-07T16:18:35;260.65;;;81.43;;
32523;SDS011;18965;52.242;20.886;2022-12-07T16:21:01;254.02;;;82.07;;
32523;SDS011;18965;52.242;20.886;2022-12-07T16:23:27;267.60;;;83.90;;
32523;SDS011;18965;52.242;20.886;2022-12-07T16:25:53;259.45;;;81.53;;
32523;SDS011;18965;52.242;20.886;2022-12-07T16:28:19;260.05;;;79.82;;
32523;SDS011;18965;52.242;20.886;2022-12-07T16:30:44;277.25;;;82.75;;
32523;SDS011;18965;52.242;20.886;2022-12-07T16:33:10;264.25;;;80.10;;
32523;SDS011;18965;52.242;20.886;2022-12-07T16:35:40;261.65;;;80.78;;
32523;SDS011;18965;52.242;20.886;2022-12-07T16:38:06;244.18;;;79.75;;
32523;SDS011;18965;52.242;20.886;2022-12-07T16:40:32;181.70;;;68.63;;
32523;SDS011;18965;52.242;20.886;2022-12-07T16:42:58;140.65;;;84.18;;
32523;SDS011;18965;52.242;20.886;2022-12-07T16:45:24;132.07;;;71.20;;
32523;SDS011;18965;52.242;20.886;2022-12-07T16:47:49;141.25;;;74.80;;